Time;durP1;ratioP1;P1;durP2;ratioP2;P2;SDS_P1;SDS_P2;PMS_P1;PMS_P2;Temp;Humidity;BMP_temperature;BMP_pressure;BME280_temperature;BME280_humidity;BME280_pressure;Samples;Min_cycle;Max_cycle;Signal;HPM_P1;HPM_P2
2023/05/15 00:01:27;;;;;;;3.40;3.20;;;;;;;;;;10481883;28;20635;-76
2023/05/15 00:06:28;;;;;;;3.67;3.47;;;;;;;;;;10485851;28;20278;-76
2023/05/15 00:11:29;;;;;;;3.63;3.33;;;;;;;;;;10490917;28;20218;-77
2023/05/15 00:16:30;;;;;;;3.67;3.53;;;;;;;;;;10468367;28;20228;-79
2023/05/15 00:21:31;;;;;;;3.60;3.47;;;;;;;;;;10491885;28;20612;-77
2023/05/15 00:26:32;;;;;;;3.40;3.20;;;;;;;;;;10486249;28;20243;-77
2023/05/15 00:31:33;;;;;;;4.57;4.28;;;;;;;;;;10451903;28;20226;-77
2023/05/15 00:36:34;;;;;;;3.90;3.72;;;;;;;;;;10489440;28;20229;-77
2023/05/15 00:41:36;;;;;;;3.45;3.35;;;;;;;;;;10467110;28;20220;-77
2023/05/15 00:46:37;;;;;;;3.67;3.45;;;;;;;;;;10472746;28;20271;-78
2023/05/15 00:51:41;;;;;;;3.20;3.00;;;;;;;;;;10463962;28;20213;-75
2023/05/15 00:56:43;;;;;;;3.17;3.08;;;;;;;;;;10473972;28;20232;-76
2023/05/15 01:01:44;;;;;;;4.03;3.83;;;;;;;;;;10457074;28;20229;-76
2023/05/15 01:06:47;;;;;;;3.63;3.42;;;;;;;;;;10477226;28;20225;-76
2023/05/15 01:11:50;;;;;;;4.15;3.78;;;;;;;;;;10457452;28;20221;-78
2023/05/15 01:16:51;;;;;;;4.18;3.80;;;;;;;;;;10475775;28;20244;-80
2023/05/15 01:22:11;;;;;;;3.50;3.40;;;;;;;;;;10459932;28;20221;-77
2023/05/15 01:27:15;;;;;;;4.65;4.35;;;;;;;;;;10482011;28;20222;-75
2023/05/15 01:32:37;;;;;;;4.20;3.90;;;;;;;;;;10470447;28;20275;-78
2023/05/15 01:37:48;;;;;;;4.40;4.10;;;;;;;;;;10451863;28;20216;-78
2023/05/15 01:42:55;;;;;;;3.30;3.20;;;;;;;;;;10481740;28;20280;-78
2023/05/15 01:47:58;;;;;;;4.28;3.72;;;;;;;;;;10433161;28;20218;-78
2023/05/15 01:53:02;;;;;;;3.90;3.70;;;;;;;;;;10435770;28;20224;-77
2023/05/15 01:58:04;;;;;;;3.40;3.25;;;;;;;;;;10458443;28;20239;-78
2023/05/15 02:03:05;;;;;;;3.63;3.33;;;;;;;;;;10431571;28;20217;-79
2023/05/15 02:08:07;;;;;;;4.18;3.88;;;;;;;;;;10479413;28;20229;-80
2023/05/15 02:13:08;;;;;;;8.45;4.30;;;;;;;;;;10440488;28;20213;-78
2023/05/15 02:18:10;;;;;;;4.40;4.00;;;;;;;;;;10460099;28;20213;-79
2023/05/15 02:23:11;;;;;;;4.05;3.63;;;;;;;;;;10483496;28;20222;-78
2023/05/15 02:28:17;;;;;;;3.72;3.63;;;;;;;;;;10468909;28;20330;-78
2023/05/15 02:33:23;;;;;;;3.72;3.53;;;;;;;;;;10473424;28;20237;-78
2023/05/15 02:38:28;;;;;;;4.30;3.85;;;;;;;;;;10488421;28;20355;-76
2023/05/15 02:43:29;;;;;;;5.07;4.10;;;;;;;;;;10485803;28;20309;-78
2023/05/15 02:48:31;;;;;;;4.25;3.97;;;;;;;;;;10483650;28;20234;-77
2023/05/15 02:53:32;;;;;;;3.92;3.60;;;;;;;;;;10452642;28;20301;-78
2023/05/15 02:58:33;;;;;;;3.83;3.60;;;;;;;;;;10477839;28;20231;-78
2023/05/15 03:03:34;;;;;;;8.30;4.22;;;;;;;;;;10462074;28;20746;-77
2023/05/15 03:08:35;;;;;;;5.20;4.47;;;;;;;;;;10480712;28;20228;-78
2023/05/15 03:13:36;;;;;;;4.35;4.10;;;;;;;;;;10456354;28;20236;-79
2023/05/15 03:18:37;;;;;;;4.15;3.97;;;;;;;;;;10443605;28;20281;-77
2023/05/15 03:23:38;;;;;;;5.10;4.70;;;;;;;;;;10482492;28;20225;-78
2023/05/15 03:28:39;;;;;;;4.25;3.95;;;;;;;;;;10489627;28;20217;-76
2023/05/15 03:33:40;;;;;;;4.80;4.40;;;;;;;;;;10472373;28;20233;-77
2023/05/15 03:38:43;;;;;;;5.28;4.88;;;;;;;;;;10452484;28;20897;-76
2023/05/15 03:43:44;;;;;;;5.10;4.70;;;;;;;;;;10475725;28;20279;-77
2023/05/15 03:48:45;;;;;;;5.22;4.82;;;;;;;;;;10441888;28;20228;-78
2023/05/15 03:53:46;;;;;;;5.90;5.20;;;;;;;;;;10442087;28;20253;-75
2023/05/15 03:58:47;;;;;;;6.35;4.90;;;;;;;;;;10460756;28;20218;-78
2023/05/15 04:03:48;;;;;;;5.18;4.88;;;;;;;;;;10482914;28;20239;-76
2023/05/15 04:08:49;;;;;;;4.90;4.60;;;;;;;;;;10460908;28;20224;-78
2023/05/15 04:13:50;;;;;;;8.20;5.30;;;;;;;;;;10463741;28;20265;-77
2023/05/15 04:18:51;;;;;;;5.72;5.30;;;;;;;;;;10465066;28;20224;-75
2023/05/15 04:23:52;;;;;;;5.43;4.93;;;;;;;;;;10477014;28;20272;-77
2023/05/15 04:28:55;;;;;;;5.43;5.03;;;;;;;;;;10453182;28;20769;-77
2023/05/15 04:33:56;;;;;;;5.82;5.38;;;;;;;;;;10455006;28;20232;-75
2023/05/15 04:38:57;;;;;;;7.25;5.72;;;;;;;;;;10458643;28;20294;-76
2023/05/15 04:43:58;;;;;;;5.85;5.45;;;;;;;;;;10471576;28;20225;-76
2023/05/15 04:48:59;;;;;;;5.78;5.13;;;;;;;;;;10474636;28;20236;-78
2023/05/15 04:54:00;;;;;;;6.45;5.85;;;;;;;;;;10484237;28;20242;-77
2023/05/15 04:59:01;;;;;;;6.18;5.65;;;;;;;;;;10467555;28;20264;-76
2023/05/15 05:04:02;;;;;;;6.93;5.70;;;;;;;;;;10473046;28;20299;-80
2023/05/15 05:09:03;;;;;;;14.43;5.90;;;;;;;;;;10468586;28;20225;-81
2023/05/15 05:14:04;;;;;;;7.13;5.30;;;;;;;;;;10453169;28;20304;-78
2023/05/15 05:19:05;;;;;;;6.25;5.82;;;;;;;;;;10480626;28;20245;-79
2023/05/15 05:24:06;;;;;;;5.78;5.28;;;;;;;;;;10461489;28;20275;-79
2023/05/15 05:29:07;;;;;;;5.85;5.30;;;;;;;;;;10464962;28;20271;-78
2023/05/15 05:34:08;;;;;;;5.22;4.90;;;;;;;;;;10477806;28;20282;-79
2023/05/15 05:39:09;;;;;;;5.28;4.88;;;;;;;;;;10449805;28;20241;-78
2023/05/15 05:44:10;;;;;;;5.40;5.00;;;;;;;;;;10452468;28;20376;-78
2023/05/15 05:49:11;;;;;;;7.95;5.10;;;;;;;;;;10470449;28;20276;-77
2023/05/15 05:54:13;;;;;;;5.50;5.05;;;;;;;;;;10462856;28;20242;-78
2023/05/15 05:59:15;;;;;;;5.07;4.70;;;;;;;;;;10444637;28;20305;-80
2023/05/15 06:04:16;;;;;;;4.57;4.38;;;;;;;;;;10465296;28;20252;-78
2023/05/15 06:09:17;;;;;;;4.60;4.20;;;;;;;;;;10471280;28;20638;-77
2023/05/15 06:14:18;;;;;;;5.72;5.32;;;;;;;;;;10457917;28;20229;-80
2023/05/15 06:19:20;;;;;;;5.50;5.00;;;;;;;;;;10493361;28;20213;-81
2023/05/15 06:24:21;;;;;;;5.60;5.13;;;;;;;;;;10467032;28;20210;-79
2023/05/15 06:29:22;;;;;;;5.60;5.10;;;;;;;;;;10459658;28;20210;-79
2023/05/15 06:34:24;;;;;;;4.57;4.28;;;;;;;;;;10460221;28;20710;-79
2023/05/15 06:39:25;;;;;;;5.20;4.80;;;;;;;;;;10458225;28;20210;-77
2023/05/15 06:44:35;;;;;;;5.00;4.57;;;;;;;;;;10463683;28;20222;-81
2023/05/15 06:49:36;;;;;;;12.85;5.60;;;;;;;;;;10461448;28;20222;-80
2023/05/15 06:54:39;;;;;;;4.65;4.22;;;;;;;;;;10464845;28;20225;-78
2023/05/15 06:59:40;;;;;;;5.43;5.10;;;;;;;;;;10433353;28;20321;-80
2023/05/15 07:04:41;;;;;;;5.15;4.90;;;;;;;;;;10470332;28;20338;-79
2023/05/15 07:09:44;;;;;;;4.82;4.63;;;;;;;;;;10424716;28;20221;-78
2023/05/15 07:14:45;;;;;;;9.60;5.18;;;;;;;;;;10475883;28;20218;-76
2023/05/15 07:19:46;;;;;;;4.65;4.45;;;;;;;;;;10459790;28;20245;-76
2023/05/15 07:24:47;;;;;;;4.93;4.55;;;;;;;;;;10453716;28;20585;-76
2023/05/15 07:29:48;;;;;;;4.53;4.28;;;;;;;;;;10452947;28;20218;-79
2023/05/15 07:34:49;;;;;;;4.60;4.20;;;;;;;;;;10473939;28;20228;-77
2023/05/15 07:39:50;;;;;;;5.00;4.70;;;;;;;;;;10476490;28;20213;-77
2023/05/15 07:44:51;;;;;;;5.43;4.15;;;;;;;;;;10473827;28;20221;-78
2023/05/15 07:49:52;;;;;;;5.57;5.07;;;;;;;;;;10467670;28;20326;-77
2023/05/15 07:54:55;;;;;;;4.90;4.57;;;;;;;;;;10401430;28;20237;-78
2023/05/15 07:59:56;;;;;;;4.25;4.05;;;;;;;;;;10445724;28;20710;-78
2023/05/15 08:04:57;;;;;;;4.07;3.78;;;;;;;;;;10433154;28;20217;-80
2023/05/15 08:09:58;;;;;;;4.20;3.92;;;;;;;;;;10445574;28;20345;-76
2023/05/15 08:14:59;;;;;;;3.42;3.22;;;;;;;;;;10433254;28;20268;-77
2023/05/15 08:19:59;;;;;;;3.58;3.38;;;;;;;;;;10472511;28;20224;-78
2023/05/15 08:25:02;;;;;;;3.17;3.08;;;;;;;;;;10443279;28;20764;-79
2023/05/15 08:30:03;;;;;;;3.72;3.38;;;;;;;;;;10459829;28;20727;-77
2023/05/15 08:35:05;;;;;;;3.38;3.13;;;;;;;;;;10453099;28;20866;-80
2023/05/15 08:40:09;;;;;;;4.38;2.63;;;;;;;;;;10462177;28;20300;-78
2023/05/15 08:45:11;;;;;;;3.03;2.88;;;;;;;;;;10468753;28;20242;-80
2023/05/15 08:50:14;;;;;;;3.40;3.20;;;;;;;;;;10452000;28;20256;-77
2023/05/15 08:55:15;;;;;;;3.75;2.83;;;;;;;;;;10465341;28;20340;-80
2023/05/15 09:00:18;;;;;;;3.15;2.92;;;;;;;;;;10471775;28;20210;-79
2023/05/15 09:05:19;;;;;;;2.92;2.80;;;;;;;;;;10448261;28;20303;-79
2023/05/15 09:10:21;;;;;;;2.80;2.70;;;;;;;;;;10445064;28;20794;-79
2023/05/15 09:15:24;;;;;;;2.90;2.40;;;;;;;;;;10433988;28;20210;-80
2023/05/15 09:20:35;;;;;;;6.32;2.65;;;;;;;;;;10455484;28;20229;-78
2023/05/15 09:25:37;;;;;;;2.92;2.72;;;;;;;;;;10439678;28;20221;-78
2023/05/15 09:30:38;;;;;;;2.95;2.63;;;;;;;;;;10466667;28;20243;-79
2023/05/15 09:35:39;;;;;;;4.63;2.97;;;;;;;;;;10432065;28;20214;-79
2023/05/15 09:40:41;;;;;;;2.70;2.50;;;;;;;;;;10457920;28;20605;-77
2023/05/15 09:45:42;;;;;;;2.53;2.42;;;;;;;;;;10441465;28;20677;-78
2023/05/15 09:50:43;;;;;;;2.72;2.55;;;;;;;;;;10442317;28;20237;-78
2023/05/15 09:55:44;;;;;;;3.42;2.80;;;;;;;;;;10443671;28;20232;-79
2023/05/15 10:00:45;;;;;;;4.97;2.72;;;;;;;;;;10442910;28;20718;-77
2023/05/15 10:05:47;;;;;;;3.00;2.90;;;;;;;;;;10467463;28;21259;-79
2023/05/15 10:10:48;;;;;;;2.90;2.70;;;;;;;;;;10470392;28;20249;-82
2023/05/15 10:15:49;;;;;;;2.97;2.85;;;;;;;;;;10449363;28;20225;-77
2023/05/15 10:20:50;;;;;;;3.00;2.90;;;;;;;;;;10467804;28;20624;-78
2023/05/15 10:25:58;;;;;;;2.85;2.65;;;;;;;;;;10448339;28;20229;-81
2023/05/15 10:31:01;;;;;;;2.97;2.67;;;;;;;;;;10462467;28;20221;-79
2023/05/15 10:36:03;;;;;;;2.78;2.78;;;;;;;;;;10464954;28;20744;-78
2023/05/15 10:41:05;;;;;;;3.05;2.83;;;;;;;;;;10465001;28;20237;-79
2023/05/15 10:46:06;;;;;;;3.05;2.88;;;;;;;;;;10474888;28;20218;-79
2023/05/15 10:51:17;;;;;;;3.00;2.90;;;;;;;;;;10444825;28;20238;-79
2023/05/15 10:56:18;;;;;;;2.85;2.78;;;;;;;;;;10463359;28;21115;-77
2023/05/15 11:01:27;;;;;;;2.92;2.47;;;;;;;;;;10480112;28;20221;-80
2023/05/15 11:06:31;;;;;;;2.33;2.33;;;;;;;;;;10459877;28;20213;-76
2023/05/15 11:11:54;;;;;;;2.78;2.58;;;;;;;;;;10474802;28;20847;-78
2023/05/15 11:16:56;;;;;;;2.45;2.38;;;;;;;;;;10474217;28;20219;-77
2023/05/15 11:21:57;;;;;;;1.88;1.75;;;;;;;;;;10464290;28;20336;-77
2023/05/15 11:26:59;;;;;;;1.60;1.60;;;;;;;;;;10455061;28;20293;-78
2023/05/15 11:32:00;;;;;;;2.42;2.22;;;;;;;;;;10465562;28;20364;-79
2023/05/15 11:37:01;;;;;;;2.20;2.10;;;;;;;;;;10470130;28;20957;-76
2023/05/15 11:42:09;;;;;;;2.85;1.63;;;;;;;;;;10460451;28;20224;-77
2023/05/15 11:47:10;;;;;;;2.25;1.67;;;;;;;;;;10464498;28;20743;-76
2023/05/15 11:52:11;;;;;;;1.60;1.50;;;;;;;;;;10429944;28;20225;-78
2023/05/15 11:57:12;;;;;;;2.78;1.67;;;;;;;;;;10446549;28;21019;-80
2023/05/15 12:02:13;;;;;;;2.05;1.83;;;;;;;;;;10474161;28;20299;-83
2023/05/15 12:07:16;;;;;;;1.98;1.83;;;;;;;;;;10445152;28;20225;-79
2023/05/15 12:12:17;;;;;;;1.80;1.75;;;;;;;;;;10477745;28;20245;-79
2023/05/15 12:17:18;;;;;;;2.10;2.00;;;;;;;;;;10481675;28;20229;-79
2023/05/15 12:22:20;;;;;;;2.78;2.20;;;;;;;;;;10472110;28;20213;-76
2023/05/15 12:27:21;;;;;;;2.15;2.05;;;;;;;;;;10457139;28;20256;-81
2023/05/15 12:32:23;;;;;;;1.80;1.80;;;;;;;;;;10452193;28;20220;-80
2023/05/15 12:37:24;;;;;;;1.75;1.65;;;;;;;;;;10468420;28;21118;-78
2023/05/15 12:42:25;;;;;;;2.05;2.05;;;;;;;;;;10449193;28;20217;-79
2023/05/15 12:47:26;;;;;;;2.67;1.95;;;;;;;;;;10469679;28;20229;-80
2023/05/15 12:52:28;;;;;;;1.63;1.63;;;;;;;;;;10460282;28;20373;-79
2023/05/15 12:57:29;;;;;;;1.58;1.50;;;;;;;;;;10434980;28;20229;-77
2023/05/15 13:02:30;;;;;;;1.90;1.80;;;;;;;;;;10471547;28;20937;-78
2023/05/15 13:07:31;;;;;;;3.80;1.52;;;;;;;;;;10451579;28;20229;-77
2023/05/15 13:12:36;;;;;;;1.70;1.70;;;;;;;;;;10476895;28;20230;-75
2023/05/15 13:17:38;;;;;;;1.67;1.60;;;;;;;;;;10430118;28;20300;-77
2023/05/15 13:22:39;;;;;;;1.75;1.65;;;;;;;;;;10469772;28;20321;-74
2023/05/15 13:27:40;;;;;;;1.90;1.80;;;;;;;;;;10468831;28;20682;-77
2023/05/15 13:32:42;;;;;;;3.28;1.75;;;;;;;;;;10446292;28;20306;-78
2023/05/15 13:37:43;;;;;;;2.42;1.80;;;;;;;;;;10446468;28;20221;-78
2023/05/15 13:42:44;;;;;;;2.13;1.95;;;;;;;;;;10471997;28;20225;-79
2023/05/15 13:47:45;;;;;;;1.95;1.55;;;;;;;;;;10469628;28;20300;-77
2023/05/15 13:52:46;;;;;;;1.98;1.40;;;;;;;;;;10471304;28;20699;-77
2023/05/15 13:57:47;;;;;;;1.70;1.70;;;;;;;;;;10464257;28;20641;-80
2023/05/15 14:02:49;;;;;;;3.17;1.67;;;;;;;;;;10468052;28;20229;-80
2023/05/15 14:07:50;;;;;;;2.00;1.90;;;;;;;;;;10468524;28;20282;-79
2023/05/15 14:12:51;;;;;;;2.30;1.60;;;;;;;;;;10460635;28;20216;-76
2023/05/15 14:17:52;;;;;;;1.60;1.60;;;;;;;;;;10471960;28;20221;-77
2023/05/15 14:22:53;;;;;;;1.75;1.75;;;;;;;;;;10483657;28;20226;-79
2023/05/15 14:27:54;;;;;;;3.30;1.90;;;;;;;;;;10457247;28;20220;-79
2023/05/15 14:32:55;;;;;;;2.50;1.95;;;;;;;;;;10446043;28;20260;-78
2023/05/15 14:37:56;;;;;;;1.80;1.70;;;;;;;;;;10484077;28;20226;-78
2023/05/15 14:42:57;;;;;;;2.28;1.92;;;;;;;;;;10475872;28;21023;-79
2023/05/15 14:47:58;;;;;;;1.77;1.75;;;;;;;;;;10465384;28;20217;-76
2023/05/15 14:52:59;;;;;;;1.73;1.73;;;;;;;;;;10488753;28;20213;-76
2023/05/15 14:58:00;;;;;;;2.03;1.88;;;;;;;;;;10469413;28;20685;-78
2023/05/15 15:03:01;;;;;;;2.67;1.98;;;;;;;;;;10460935;28;20939;-77
2023/05/15 15:08:09;;;;;;;2.33;2.22;;;;;;;;;;10462034;28;20225;-76
2023/05/15 15:13:12;;;;;;;1.95;1.95;;;;;;;;;;10477053;28;20221;-77
2023/05/15 15:18:13;;;;;;;1.95;1.58;;;;;;;;;;10479362;28;20783;-78
2023/05/15 15:23:14;;;;;;;2.60;1.70;;;;;;;;;;10489272;28;20216;-77
2023/05/15 15:28:16;;;;;;;3.92;1.75;;;;;;;;;;10489754;28;20681;-76
2023/05/15 15:33:17;;;;;;;2.67;2.47;;;;;;;;;;10484639;28;20213;-79
2023/05/15 15:38:18;;;;;;;2.03;1.90;;;;;;;;;;10487168;28;20248;-77
2023/05/15 15:43:19;;;;;;;3.95;2.42;;;;;;;;;;10482795;28;20232;-77
2023/05/15 15:48:20;;;;;;;2.78;2.00;;;;;;;;;;10483786;28;20574;-78
2023/05/15 15:53:21;;;;;;;1.90;1.90;;;;;;;;;;10490646;28;20217;-78
2023/05/15 15:58:22;;;;;;;1.90;1.90;;;;;;;;;;10466239;28;20291;-79
2023/05/15 16:03:30;;;;;;;1.88;1.75;;;;;;;;;;10480658;28;20233;-74
2023/05/15 16:08:31;;;;;;;1.92;1.80;;;;;;;;;;10469135;28;20217;-77
2023/05/15 16:13:32;;;;;;;1.75;1.65;;;;;;;;;;10472070;28;20217;-77
2023/05/15 16:18:33;;;;;;;2.03;1.80;;;;;;;;;;10463929;28;20252;-77
2023/05/15 16:23:34;;;;;;;1.77;1.77;;;;;;;;;;10486067;28;20217;-79
2023/05/15 16:28:35;;;;;;;1.55;1.55;;;;;;;;;;10484046;28;20229;-78
2023/05/15 16:33:36;;;;;;;3.50;1.70;;;;;;;;;;10441743;28;20596;-77
2023/05/15 16:38:38;;;;;;;1.70;1.60;;;;;;;;;;10466501;28;20791;-78
2023/05/15 16:43:39;;;;;;;1.60;1.50;;;;;;;;;;10479827;28;20225;-79
2023/05/15 16:48:40;;;;;;;1.73;1.67;;;;;;;;;;10449276;28;20217;-77
2023/05/15 16:53:41;;;;;;;3.80;1.95;;;;;;;;;;10458747;28;20279;-78
2023/05/15 16:58:42;;;;;;;2.00;1.85;;;;;;;;;;10440408;28;20305;-78
2023/05/15 17:03:43;;;;;;;1.52;1.52;;;;;;;;;;10456655;28;20221;-80
2023/05/15 17:08:45;;;;;;;3.45;1.58;;;;;;;;;;10469262;28;20225;-78
2023/05/15 17:13:46;;;;;;;2.10;1.77;;;;;;;;;;10447168;28;20232;-79
2023/05/15 17:18:46;;;;;;;1.85;1.85;;;;;;;;;;10458418;28;20220;-78
2023/05/15 17:23:47;;;;;;;2.10;2.00;;;;;;;;;;10475299;28;20235;-78
2023/05/15 17:28:48;;;;;;;2.63;2.53;;;;;;;;;;10481837;28;20750;-77
2023/05/15 17:33:49;;;;;;;2.80;2.55;;;;;;;;;;10461262;28;20315;-78
2023/05/15 17:38:50;;;;;;;4.80;2.83;;;;;;;;;;10469156;28;20306;-77
2023/05/15 17:43:51;;;;;;;2.80;2.63;;;;;;;;;;10486853;28;20274;-79
2023/05/15 17:48:52;;;;;;;3.25;2.97;;;;;;;;;;10481128;28;20221;-78
2023/05/15 17:53:53;;;;;;;4.50;2.63;;;;;;;;;;10451713;28;20319;-78
2023/05/15 17:58:54;;;;;;;2.85;2.60;;;;;;;;;;10452765;28;20695;-77
2023/05/15 18:03:55;;;;;;;3.35;2.95;;;;;;;;;;10453893;28;20216;-79
2023/05/15 18:08:57;;;;;;;2.45;2.25;;;;;;;;;;10467199;28;20336;-77
2023/05/15 18:13:58;;;;;;;3.63;2.60;;;;;;;;;;10467626;28;20213;-78
2023/05/15 18:18:59;;;;;;;2.83;2.60;;;;;;;;;;10451660;28;20213;-78
2023/05/15 18:24:00;;;;;;;3.28;3.10;;;;;;;;;;10470777;28;20336;-76
2023/05/15 18:29:01;;;;;;;3.13;2.80;;;;;;;;;;10447407;28;20393;-78
2023/05/15 18:34:02;;;;;;;3.50;3.35;;;;;;;;;;10464983;28;20217;-79
2023/05/15 18:39:03;;;;;;;2.63;2.53;;;;;;;;;;10439804;28;20249;-77
2023/05/15 18:44:04;;;;;;;2.60;2.40;;;;;;;;;;10463687;28;20218;-78
2023/05/15 18:49:05;;;;;;;2.60;2.50;;;;;;;;;;10453205;28;20217;-78
2023/05/15 18:54:06;;;;;;;2.63;2.50;;;;;;;;;;10441707;28;20226;-79
2023/05/15 18:59:07;;;;;;;2.30;2.20;;;;;;;;;;10467572;28;21538;-79
2023/05/15 19:04:08;;;;;;;2.60;2.40;;;;;;;;;;10505300;28;20282;-82
2023/05/15 19:09:09;;;;;;;2.55;2.45;;;;;;;;;;10497894;28;20292;-80
2023/05/15 19:14:14;;;;;;;2.60;2.55;;;;;;;;;;10494576;28;20225;-80
2023/05/15 19:19:15;;;;;;;3.35;2.30;;;;;;;;;;10475844;28;20305;-80
2023/05/15 19:24:16;;;;;;;2.70;2.40;;;;;;;;;;10474026;28;20253;-80
2023/05/15 19:29:17;;;;;;;2.50;2.40;;;;;;;;;;10471543;28;20775;-80
2023/05/15 19:34:18;;;;;;;2.00;2.00;;;;;;;;;;10468638;28;20217;-78
2023/05/15 19:39:19;;;;;;;2.15;2.15;;;;;;;;;;10458387;28;20221;-79
2023/05/15 19:44:20;;;;;;;2.15;2.15;;;;;;;;;;10469355;28;20262;-77
2023/05/15 19:49:21;;;;;;;2.58;2.38;;;;;;;;;;10441929;28;20300;-78
2023/05/15 19:54:22;;;;;;;2.75;2.38;;;;;;;;;;10456906;28;20556;-78
2023/05/15 19:59:23;;;;;;;2.40;2.20;;;;;;;;;;10487979;28;20220;-77
2023/05/15 20:04:24;;;;;;;3.67;2.60;;;;;;;;;;10457218;28;20226;-75
2023/05/15 20:09:25;;;;;;;3.00;2.90;;;;;;;;;;10482741;28;20593;-76
2023/05/15 20:14:26;;;;;;;3.42;3.33;;;;;;;;;;10454568;28;20228;-74
2023/05/15 20:19:29;;;;;;;3.10;3.00;;;;;;;;;;10464672;28;20610;-77
2023/05/15 20:24:31;;;;;;;4.22;3.90;;;;;;;;;;10485278;28;20230;-78
2023/05/15 20:29:32;;;;;;;3.92;3.33;;;;;;;;;;10474245;28;20248;-77
2023/05/15 20:34:35;;;;;;;3.78;3.47;;;;;;;;;;10461933;28;20700;-77
2023/05/15 20:39:36;;;;;;;2.75;2.65;;;;;;;;;;10493215;28;20309;-78
2023/05/15 20:44:38;;;;;;;3.38;3.20;;;;;;;;;;10480333;28;20230;-80
2023/05/15 20:49:39;;;;;;;3.20;3.03;;;;;;;;;;10460438;28;20230;-77
2023/05/15 20:54:40;;;;;;;3.15;3.00;;;;;;;;;;10478189;28;21285;-79
2023/05/15 20:59:41;;;;;;;3.15;2.83;;;;;;;;;;10486612;28;20295;-78
2023/05/15 21:04:42;;;;;;;2.53;2.42;;;;;;;;;;10479276;28;20313;-78
2023/05/15 21:09:43;;;;;;;2.40;2.30;;;;;;;;;;10460546;28;20596;-78
2023/05/15 21:14:44;;;;;;;2.58;2.40;;;;;;;;;;10483077;28;20244;-78
2023/05/15 21:19:47;;;;;;;2.85;2.65;;;;;;;;;;10466493;28;20228;-80
2023/05/15 21:24:48;;;;;;;2.90;2.80;;;;;;;;;;10481411;28;21074;-77
2023/05/15 21:29:49;;;;;;;5.78;3.17;;;;;;;;;;10443318;28;20340;-78
2023/05/15 21:34:50;;;;;;;2.92;2.75;;;;;;;;;;10468945;28;20227;-79
2023/05/15 21:39:51;;;;;;;2.95;2.85;;;;;;;;;;10488831;28;20229;-77
2023/05/15 21:44:52;;;;;;;7.30;2.97;;;;;;;;;;10458802;28;20221;-76
2023/05/15 21:49:53;;;;;;;4.40;3.80;;;;;;;;;;10455264;28;20225;-78
2023/05/15 21:54:54;;;;;;;3.88;3.78;;;;;;;;;;10458968;28;20723;-79
2023/05/15 21:59:55;;;;;;;4.60;4.40;;;;;;;;;;10486679;28;20312;-78
2023/05/15 22:04:56;;;;;;;5.85;5.35;;;;;;;;;;10481504;28;20217;-77
2023/05/15 22:09:57;;;;;;;8.20;5.45;;;;;;;;;;10448774;28;20210;-78
2023/05/15 22:14:58;;;;;;;5.00;4.80;;;;;;;;;;10477836;28;20222;-76
2023/05/15 22:20:06;;;;;;;5.13;4.72;;;;;;;;;;10477101;28;20257;-77
2023/05/15 22:25:07;;;;;;;4.22;3.88;;;;;;;;;;10468665;28;20439;-76
2023/05/15 22:30:08;;;;;;;9.20;4.10;;;;;;;;;;10485576;28;20206;-77
2023/05/15 22:35:10;;;;;;;4.03;3.83;;;;;;;;;;10470524;28;20209;-78
2023/05/15 22:40:11;;;;;;;3.90;3.60;;;;;;;;;;10498152;28;20197;-77
2023/05/15 22:45:12;;;;;;;4.63;4.32;;;;;;;;;;10490831;28;20198;-77
2023/05/15 22:50:13;;;;;;;4.85;4.13;;;;;;;;;;10488092;28;20798;-77
2023/05/15 22:55:14;;;;;;;6.68;3.42;;;;;;;;;;10494583;28;20675;-75
2023/05/15 23:00:16;;;;;;;4.00;3.60;;;;;;;;;;10468525;28;20335;-76
2023/05/15 23:05:17;;;;;;;4.55;3.60;;;;;;;;;;10468866;28;20241;-76
2023/05/15 23:10:18;;;;;;;3.92;3.63;;;;;;;;;;10464783;28;20202;-77
2023/05/15 23:15:20;;;;;;;4.38;4.07;;;;;;;;;;10468224;28;20205;-77
2023/05/15 23:20:21;;;;;;;3.47;3.28;;;;;;;;;;10473463;28;20230;-77
2023/05/15 23:25:22;;;;;;;3.85;3.53;;;;;;;;;;10483848;28;20206;-77
2023/05/15 23:30:23;;;;;;;5.20;4.15;;;;;;;;;;10468790;28;20220;-79
2023/05/15 23:35:24;;;;;;;4.15;3.85;;;;;;;;;;10469400;28;20221;-78
2023/05/15 23:40:25;;;;;;;4.20;4.00;;;;;;;;;;10472403;28;20222;-76
2023/05/15 23:45:27;;;;;;;4.18;3.95;;;;;;;;;;10479951;28;20347;-77
2023/05/15 23:50:28;;;;;;;4.68;4.38;;;;;;;;;;10450674;28;20217;-78
2023/05/15 23:55:29;;;;;;;3.90;3.70;;;;;;;;;;10460137;28;20688;-76
